Time;durP1;ratioP1;P1;durP2;ratioP2;P2;SDS_P1;SDS_P2;PMS_P1;PMS_P2;Temp;Humidity;BMP_temperature;BMP_pressure;BME280_temperature;BME280_humidity;BME280_pressure;Samples;Min_cycle;Max_cycle;Signal;HPM_P1;HPM_P2
2023/02/07 00:01:52;;;;;;;;;;;;;;;;;;5115780;28;19950;-77
2023/02/07 00:04:18;;;;;;;;;;;;;;;;;;5116960;28;20307;-77
2023/02/07 00:06:44;;;;;;;;;;;;;;;;;;5116535;28;19911;-77
2023/02/07 00:09:10;;;;;;;;;;;;;;;;;;5116911;28;19912;-78
2023/02/07 00:11:39;;;;;;;;;;;;;;;;;;5116950;28;19914;-77
2023/02/07 00:14:05;;;;;;;;;;;;;;;;;;5116304;28;19920;-78
2023/02/07 00:16:31;;;;;;;;;;;;;;;;;;5115550;28;19968;-76
2023/02/07 00:18:57;;;;;;;;;;;;;;;;;;5116729;27;19960;-77
2023/02/07 00:21:23;;;;;;;;;;;;;;;;;;5116515;28;19915;-78
2023/02/07 00:23:49;;;;;;;;;;;;;;;;;;5116704;28;19908;-78
2023/02/07 00:26:15;;;;;;;;;;;;;;;;;;5116666;28;19912;-78
2023/02/07 00:28:41;;;;;;;;;;;;;;;;;;5116316;28;20367;-78
2023/02/07 00:31:06;;;;;;;;;;;;;;;;;;5116517;28;20253;-78
2023/02/07 00:33:32;;;;;;;;;;;;;;;;;;5116735;28;19915;-77
2023/02/07 00:35:58;;;;;;;;;;;;;;;;;;5115927;28;19999;-78
2023/02/07 00:38:24;;;;;;;;;;;;;;;;;;5116606;28;20010;-78
2023/02/07 00:40:50;;;;;;;;;;;;;;;;;;5115943;28;19915;-78
2023/02/07 00:43:16;;;;;;;;;;;;;;;;;;5115735;28;19907;-78
2023/02/07 00:45:42;;;;;;;;;;;;;;;;;;5114901;28;19908;-77
2023/02/07 00:48:08;;;;;;;;;;;;;;;;;;5116472;28;20496;-78
2023/02/07 00:50:34;;;;;;;;;;;;;;;;;;5116791;28;19912;-78
2023/02/07 00:53:00;;;;;;;;;;;;;;;;;;5116200;28;20417;-78
2023/02/07 00:55:26;;;;;;;;;;;;;;;;;;5115670;28;19908;-78
2023/02/07 00:57:52;;;;;;;;;;;;;;;;;;5115992;28;20003;-78
2023/02/07 01:00:18;;;;;;;;;;;;;;;;;;5115938;28;19908;-78
2023/02/07 01:02:44;;;;;;;;;;;;;;;;;;5115892;28;19918;-77
2023/02/07 01:05:10;;;;;;;;;;;;;;;;;;5115819;28;20325;-77
2023/02/07 01:07:36;;;;;;;;;;;;;;;;;;5115693;28;19908;-77
2023/02/07 01:10:02;;;;;;;;;;;;;;;;;;5115458;28;19915;-77
2023/02/07 01:12:28;;;;;;;;;;;;;;;;;;5115960;28;19908;-77
2023/02/07 01:14:54;;;;;;;;;;;;;;;;;;5115776;28;19920;-77
2023/02/07 01:17:19;;;;;;;;;;;;;;;;;;5115339;28;19923;-78
2023/02/07 01:19:45;;;;;;;;;;;;;;;;;;5115736;28;19991;-77
2023/02/07 01:22:11;;;;;;;;;;;;;;;;;;5115856;28;19908;-77
2023/02/07 01:24:37;;;;;;;;;;;;;;;;;;5115232;27;20364;-77
2023/02/07 01:27:03;;;;;;;;;;;;;;;;;;5115964;28;20002;-78
2023/02/07 01:29:29;;;;;;;;;;;;;;;;;;5115372;28;19907;-77
2023/02/07 01:31:55;;;;;;;;;;;;;;;;;;5115112;27;19919;-78
2023/02/07 01:34:21;;;;;;;;;;;;;;;;;;5115274;28;20014;-77
2023/02/07 01:36:47;;;;;;;;;;;;;;;;;;5115133;28;20057;-77
2023/02/07 01:39:13;;;;;;;;;;;;;;;;;;5114958;27;19907;-78
2023/02/07 01:41:39;;;;;;;;;;;;;;;;;;5115230;28;19908;-77
2023/02/07 01:44:05;;;;;;;;;;;;;;;;;;5115317;28;19908;-77
2023/02/07 01:46:31;;;;;;;;;;;;;;;;;;5114854;28;20010;-76
2023/02/07 01:48:57;;;;;;;;;;;;;;;;;;5114561;28;19908;-76
2023/02/07 01:51:23;;;;;;;;;;;;;;;;;;5093062;28;19916;-78
2023/02/07 01:53:49;;;;;;;;;;;;;;;;;;5093362;28;19908;-78
2023/02/07 01:56:14;;;;;;;;;;;;;;;;;;5094441;28;20006;-78
2023/02/07 01:58:40;;;;;;;;;;;;;;;;;;5094126;28;19930;-77
2023/02/07 02:01:06;;;;;;;;;;;;;;;;;;5094409;28;19908;-77
2023/02/07 02:03:32;;;;;;;;;;;;;;;;;;5094350;28;20008;-77
2023/02/07 02:05:58;;;;;;;;;;;;;;;;;;5094115;28;19908;-78
2023/02/07 02:08:24;;;;;;;;;;;;;;;;;;5094342;28;19919;-76
2023/02/07 02:10:50;;;;;;;;;;;;;;;;;;5094590;28;19958;-77
2023/02/07 02:13:16;;;;;;;;;;;;;;;;;;5093730;28;19974;-78
2023/02/07 02:15:42;;;;;;;;;;;;;;;;;;5094605;28;20011;-77
2023/02/07 02:18:08;;;;;;;;;;;;;;;;;;5094321;28;19954;-77
2023/02/07 02:20:34;;;;;;;;;;;;;;;;;;5093887;28;19916;-77
2023/02/07 02:23:00;;;;;;;;;;;;;;;;;;5094151;28;19973;-76
2023/02/07 02:25:26;;;;;;;;;;;;;;;;;;5092771;28;19915;-78
2023/02/07 02:27:52;;;;;;;;;;;;;;;;;;5093901;28;20374;-77
2023/02/07 02:30:18;;;;;;;;;;;;;;;;;;5094050;28;19984;-78
2023/02/07 02:32:44;;;;;;;;;;;;;;;;;;5094340;28;19912;-77
2023/02/07 02:35:10;;;;;;;;;;;;;;;;;;5093731;28;19915;-75
2023/02/07 02:37:36;;;;;;;;;;;;;;;;;;5093890;28;19917;-76
2023/02/07 02:40:01;;;;;;;;;;;;;;;;;;5093856;28;19908;-76
2023/02/07 02:42:27;;;;;;;;;;;;;;;;;;5093487;28;19965;-75
2023/02/07 02:44:53;;;;;;;;;;;;;;;;;;5093780;28;19908;-75
2023/02/07 02:47:19;;;;;;;;;;;;;;;;;;5093798;28;19915;-76
2023/02/07 02:49:45;;;;;;;;;;;;;;;;;;5093450;28;19908;-75
2023/02/07 02:52:11;;;;;;;;;;;;;;;;;;5093784;28;19912;-76
2023/02/07 02:54:37;;;;;;;;;;;;;;;;;;5093556;28;19915;-76
2023/02/07 02:57:03;;;;;;;;;;;;;;;;;;5093455;28;19916;-77
2023/02/07 02:59:29;;;;;;;;;;;;;;;;;;5093733;28;19912;-75
2023/02/07 03:01:55;;;;;;;;;;;;;;;;;;5093285;28;19908;-76
2023/02/07 03:04:21;;;;;;;;;;;;;;;;;;5092956;28;19915;-77
2023/02/07 03:06:47;;;;;;;;;;;;;;;;;;5097647;28;19908;-76
2023/02/07 03:09:13;;;;;;;;;;;;;;;;;;5097480;28;19908;-76
2023/02/07 03:11:39;;;;;;;;;;;;;;;;;;5096404;28;19908;-76
2023/02/07 03:14:04;;;;;;;;;;;;;;;;;;5097408;28;19928;-76
2023/02/07 03:16:30;;;;;;;;;;;;;;;;;;5109583;28;19919;-76
2023/02/07 03:18:56;;;;;;;;;;;;;;;;;;5118091;28;19914;-76
2023/02/07 03:21:22;;;;;;;;;;;;;;;;;;5118208;28;19950;-76
2023/02/07 03:23:48;;;;;;;;;;;;;;;;;;5117486;28;19907;-76
2023/02/07 03:26:14;;;;;;;;;;;;;;;;;;5117870;28;19919;-77
2023/02/07 03:28:40;;;;;;;;;;;;;;;;;;5117795;28;19953;-77
2023/02/07 03:31:06;;;;;;;;;;;;;;;;;;5117375;28;19908;-77
2023/02/07 03:33:32;;;;;;;;;;;;;;;;;;5117746;28;19908;-77
2023/02/07 03:35:58;;;;;;;;;;;;;;;;;;5117573;28;19976;-77
2023/02/07 03:38:24;;;;;;;;;;;;;;;;;;5117211;28;19911;-77
2023/02/07 03:40:50;;;;;;;;;;;;;;;;;;5116356;28;19908;-76
2023/02/07 03:43:16;;;;;;;;;;;;;;;;;;5117572;28;19973;-78
2023/02/07 03:45:42;;;;;;;;;;;;;;;;;;5117258;28;19908;-77
2023/02/07 03:48:08;;;;;;;;;;;;;;;;;;5117558;28;19908;-77
2023/02/07 03:50:34;;;;;;;;;;;;;;;;;;5116052;28;19968;-77
2023/02/07 03:53:00;;;;;;;;;;;;;;;;;;5115610;28;19908;-78
2023/02/07 03:55:26;;;;;;;;;;;;;;;;;;5117395;28;19908;-78
2023/02/07 03:57:52;;;;;;;;;;;;;;;;;;5115972;28;19984;-78
2023/02/07 04:00:18;;;;;;;;;;;;;;;;;;5116900;28;19943;-77
2023/02/07 04:02:44;;;;;;;;;;;;;;;;;;5117199;28;19912;-77
2023/02/07 04:05:10;;;;;;;;;;;;;;;;;;5116680;28;19915;-77
2023/02/07 04:07:36;;;;;;;;;;;;;;;;;;5117122;28;19994;-77
2023/02/07 04:10:02;;;;;;;;;;;;;;;;;;5117095;28;19907;-78
2023/02/07 04:12:31;;;;;;;;;;;;;;;;;;5116658;28;19912;-77
2023/02/07 04:14:57;;;;;;;;;;;;;;;;;;5115618;28;19927;-78
2023/02/07 04:17:23;;;;;;;;;;;;;;;;;;5114639;28;19915;-77
2023/02/07 04:19:49;;;;;;;;;;;;;;;;;;5116564;28;19907;-77
2023/02/07 04:22:15;;;;;;;;;;;;;;;;;;5116950;28;19961;-78
2023/02/07 04:24:41;;;;;;;;;;;;;;;;;;5117064;28;19993;-77
2023/02/07 04:27:07;;;;;;;;;;;;;;;;;;5116652;28;19915;-77
2023/02/07 04:29:33;;;;;;;;;;;;;;;;;;5116676;28;19908;-77
2023/02/07 04:31:59;;;;;;;;;;;;;;;;;;5116979;28;19923;-78
2023/02/07 04:34:25;;;;;;;;;;;;;;;;;;5116396;28;19908;-78
2023/02/07 04:36:51;;;;;;;;;;;;;;;;;;5115291;28;19923;-78
2023/02/07 04:39:16;;;;;;;;;;;;;;;;;;5116648;28;19994;-78
2023/02/07 04:41:42;;;;;;;;;;;;;;;;;;5115979;28;19961;-78
2023/02/07 04:44:08;;;;;;;;;;;;;;;;;;5116628;28;19908;-78
2023/02/07 04:46:34;;;;;;;;;;;;;;;;;;5116563;28;19962;-77
2023/02/07 04:49:00;;;;;;;;;;;;;;;;;;5115960;28;19907;-77
2023/02/07 04:51:26;;;;;;;;;;;;;;;;;;5116474;28;19907;-77
2023/02/07 04:53:52;;;;;;;;;;;;;;;;;;5114934;28;19961;-78
2023/02/07 04:56:18;;;;;;;;;;;;;;;;;;5115787;28;19967;-78
2023/02/07 04:58:44;;;;;;;;;;;;;;;;;;5116202;28;19912;-77
2023/02/07 05:01:10;;;;;;;;;;;;;;;;;;5114598;28;19960;-77
2023/02/07 05:03:36;;;;;;;;;;;;;;;;;;5115653;28;19911;-77
2023/02/07 05:06:02;;;;;;;;;;;;;;;;;;5115918;27;19951;-78
2023/02/07 05:08:28;;;;;;;;;;;;;;;;;;5115677;28;20424;-77
2023/02/07 05:10:54;;;;;;;;;;;;;;;;;;5115799;28;19912;-77
2023/02/07 05:13:20;;;;;;;;;;;;;;;;;;5115739;28;19907;-77
2023/02/07 05:15:46;;;;;;;;;;;;;;;;;;5115359;28;19973;-77
2023/02/07 05:18:12;;;;;;;;;;;;;;;;;;5115372;28;20276;-77
2023/02/07 05:20:37;;;;;;;;;;;;;;;;;;5115619;28;20420;-78
2023/02/07 05:23:03;;;;;;;;;;;;;;;;;;5114078;28;20267;-78
2023/02/07 05:25:29;;;;;;;;;;;;;;;;;;5115625;28;19907;-77
2023/02/07 05:27:55;;;;;;;;;;;;;;;;;;5115494;28;19977;-78
2023/02/07 05:30:21;;;;;;;;;;;;;;;;;;5115356;28;19986;-77
2023/02/07 05:33:02;;;;;;;;;;;;;;;;;;5115360;28;19933;-78
2023/02/07 05:35:29;;;;;;;;;;;;;;;;;;5114353;28;19915;-77
2023/02/07 05:37:55;;;;;;;;;;;;;;;;;;5114269;28;20006;-78
2023/02/07 05:40:21;;;;;;;;;;;;;;;;;;5115246;28;19973;-77
2023/02/07 05:42:47;;;;;;;;;;;;;;;;;;5115151;28;19958;-78
2023/02/07 05:45:13;;;;;;;;;;;;;;;;;;5114946;28;20364;-78
2023/02/07 05:47:39;;;;;;;;;;;;;;;;;;5115079;28;20253;-77
2023/02/07 05:50:05;;;;;;;;;;;;;;;;;;5114661;28;19965;-78
2023/02/07 05:52:31;;;;;;;;;;;;;;;;;;5114891;28;19911;-77
2023/02/07 05:54:57;;;;;;;;;;;;;;;;;;5113464;28;19914;-78
2023/02/07 05:57:23;;;;;;;;;;;;;;;;;;5112979;28;19916;-78
2023/02/07 05:59:49;;;;;;;;;;;;;;;;;;5112649;28;19908;-78
2023/02/07 06:02:15;;;;;;;;;;;;;;;;;;5112790;28;19959;-78
2023/02/07 06:04:40;;;;;;;;;;;;;;;;;;5112687;28;19907;-78
2023/02/07 06:07:06;;;;;;;;;;;;;;;;;;5112856;28;19915;-78
2023/02/07 06:09:33;;;;;;;;;;;;;;;;;;5103060;28;19912;-77
2023/02/07 06:11:59;;;;;;;;;;;;;;;;;;5092292;28;19912;-74
2023/02/07 06:14:25;;;;;;;;;;;;;;;;;;5092950;28;20391;-76
2023/02/07 06:16:51;;;;;;;;;;;;;;;;;;5094149;28;19916;-83
2023/02/07 06:19:17;;;;;;;;;;;;;;;;;;5092629;28;19966;-77
2023/02/07 06:21:51;;;;;;;;;;;;;;;;;;5090391;28;19933;-78
2023/02/07 06:24:18;;;;;;;;;;;;;;;;;;5091653;28;19919;-71
2023/02/07 06:26:45;;;;;;;;;;;;;;;;;;5090754;28;19965;-72
2023/02/07 06:29:11;;;;;;;;;;;;;;;;;;5089885;28;20283;-73
2023/02/07 06:31:37;;;;;;;;;;;;;;;;;;5090109;28;19912;-71
2023/02/07 06:34:03;;;;;;;;;;;;;;;;;;5089850;28;20015;-72
2023/02/07 06:36:29;;;;;;;;;;;;;;;;;;5091806;28;19977;-74
2023/02/07 06:38:55;;;;;;;;;;;;;;;;;;5088738;28;19922;-71
2023/02/07 06:41:21;;;;;;;;;;;;;;;;;;5084977;28;19999;-71
2023/02/07 06:43:47;;;;;;;;;;;;;;;;;;5084111;28;19916;-72
2023/02/07 06:46:13;;;;;;;;;;;;;;;;;;5088611;28;19995;-72
2023/02/07 06:48:39;;;;;;;;;;;;;;;;;;5088173;28;19915;-70
2023/02/07 06:51:05;;;;;;;;;;;;;;;;;;5087667;28;20391;-72
2023/02/07 06:53:30;;;;;;;;;;;;;;;;;;5089512;28;19957;-71
2023/02/07 06:55:56;;;;;;;;;;;;;;;;;;5090877;28;19920;-71
2023/02/07 06:58:22;;;;;;;;;;;;;;;;;;5088715;28;19912;-70
2023/02/07 07:00:48;;;;;;;;;;;;;;;;;;5093558;28;20349;-70
2023/02/07 07:03:14;;;;;;;;;;;;;;;;;;5090147;28;19965;-73
2023/02/07 07:05:40;;;;;;;;;;;;;;;;;;5088355;28;19967;-70
2023/02/07 07:08:06;;;;;;;;;;;;;;;;;;5091025;28;19915;-70
2023/02/07 07:10:32;;;;;;;;;;;;;;;;;;5088286;28;20363;-69
2023/02/07 07:12:58;;;;;;;;;;;;;;;;;;5089951;28;19939;-71
2023/02/07 07:15:24;;;;;;;;;;;;;;;;;;5089119;28;19927;-73
2023/02/07 07:17:50;;;;;;;;;;;;;;;;;;5090879;28;19962;-74
2023/02/07 07:20:16;;;;;;;;;;;;;;;;;;5085644;28;19912;-71
2023/02/07 07:22:42;;;;;;;;;;;;;;;;;;5088952;28;19912;-71
2023/02/07 07:25:08;;;;;;;;;;;;;;;;;;5089516;28;19923;-72
2023/02/07 07:27:34;;;;;;;;;;;;;;;;;;5089108;28;19916;-72
2023/02/07 07:30:00;;;;;;;;;;;;;;;;;;5088786;28;20015;-73
2023/02/07 07:32:26;;;;;;;;;;;;;;;;;;5089743;28;19924;-73
2023/02/07 07:34:53;;;;;;;;;;;;;;;;;;5089629;28;19916;-71
2023/02/07 07:37:19;;;;;;;;;;;;;;;;;;5089193;28;19974;-71
2023/02/07 07:39:45;;;;;;;;;;;;;;;;;;5088950;28;19916;-68
2023/02/07 07:42:11;;;;;;;;;;;;;;;;;;5087430;28;19912;-71
2023/02/07 07:44:37;;;;;;;;;;;;;;;;;;5087860;28;19925;-71
2023/02/07 07:47:03;;;;;;;;;;;;;;;;;;5090571;28;19908;-71
2023/02/07 07:49:28;;;;;;;;;;;;;;;;;;5090024;28;20402;-72
2023/02/07 07:51:54;;;;;;;;;;;;;;;;;;5091776;28;20395;-74
2023/02/07 07:54:20;;;;;;;;;;;;;;;;;;5094482;28;20303;-75
2023/02/07 07:56:46;;;;;;;;;;;;;;;;;;5093665;28;19938;-72
2023/02/07 07:59:12;;;;;;;;;;;;;;;;;;5093133;28;19959;-73
2023/02/07 08:01:38;;;;;;;;;;;;;;;;;;5093522;28;19957;-70
2023/02/07 08:04:04;;;;;;;;;;;;;;;;;;5092105;28;19924;-69
2023/02/07 08:06:30;;;;;;;;;;;;;;;;;;5089463;28;19916;-69
2023/02/07 08:08:56;;;;;;;;;;;;;;;;;;5105093;28;19916;-69
2023/02/07 08:11:22;;;;;;;;;;;;;;;;;;5086845;28;20271;-68
2023/02/07 08:13:48;;;;;;;;;;;;;;;;;;5099346;28;19971;-70
2023/02/07 08:16:14;;;;;;;;;;;;;;;;;;5092089;28;19967;-70
2023/02/07 08:18:40;;;;;;;;;;;;;;;;;;5095079;28;19933;-70
2023/02/07 08:21:06;;;;;;;;;;;;;;;;;;5087567;28;19916;-70
2023/02/07 08:23:32;;;;;;;;;;;;;;;;;;5090749;28;19919;-69
2023/02/07 08:25:58;;;;;;;;;;;;;;;;;;5089108;28;20019;-70
2023/02/07 08:28:25;;;;;;;;;;;;;;;;;;5083773;28;19938;-68
2023/02/07 08:30:51;;;;;;;;;;;;;;;;;;5089523;28;20372;-71
2023/02/07 08:33:17;;;;;;;;;;;;;;;;;;5091138;28;20372;-69
2023/02/07 08:35:43;;;;;;;;;;;;;;;;;;5091888;28;19919;-69
2023/02/07 08:38:09;;;;;;;;;;;;;;;;;;5087839;28;19916;-68
2023/02/07 08:40:35;;;;;;;;;;;;;;;;;;5092520;28;19961;-70
2023/02/07 08:43:01;;;;;;;;;;;;;;;;;;5088433;28;19912;-70
2023/02/07 08:45:27;;;;;;;;;;;;;;;;;;5092345;28;19937;-70
2023/02/07 08:47:53;;;;;;;;;;;;;;;;;;5090120;28;19916;-70
2023/02/07 08:50:19;;;;;;;;;;;;;;;;;;5085513;28;19912;-70
2023/02/07 08:52:45;;;;;;;;;;;;;;;;;;5083082;28;19916;-72
2023/02/07 08:55:11;;;;;;;;;;;;;;;;;;5078194;28;19923;-70
2023/02/07 08:57:37;;;;;;;;;;;;;;;;;;5113397;27;20011;-68
2023/02/07 09:00:03;;;;;;;;;;;;;;;;;;5092177;28;19916;-71
2023/02/07 09:02:29;;;;;;;;;;;;;;;;;;5088571;28;19923;-69
2023/02/07 09:04:55;;;;;;;;;;;;;;;;;;5090842;28;19959;-70
2023/02/07 09:07:21;;;;;;;;;;;;;;;;;;5089393;28;19957;-68
2023/02/07 09:09:47;;;;;;;;;;;;;;;;;;5081501;28;19916;-68
2023/02/07 09:12:13;;;;;;;;;;;;;;;;;;5093299;28;19913;-68
2023/02/07 09:14:39;;;;;;;;;;;;;;;;;;5083388;28;19963;-70
2023/02/07 09:17:05;;;;;;;;;;;;;;;;;;5082167;28;19974;-69
2023/02/07 09:19:31;;;;;;;;;;;;;;;;;;5080332;28;19928;-69
2023/02/07 09:21:57;;;;;;;;;;;;;;;;;;5089248;28;19919;-71
2023/02/07 09:24:23;;;;;;;;;;;;;;;;;;5084830;28;19916;-71
2023/02/07 09:26:48;;;;;;;;;;;;;;;;;;5078174;28;19912;-74
2023/02/07 09:29:14;;;;;;;;;;;;;;;;;;5085367;28;19930;-71
2023/02/07 09:31:43;;;;;;;;;;;;;;;;;;5085188;28;19919;-74
2023/02/07 09:34:09;;;;;;;;;;;;;;;;;;5085469;28;19970;-71
2023/02/07 09:36:35;;;;;;;;;;;;;;;;;;5082089;28;19951;-73
2023/02/07 09:39:01;;;;;;;;;;;;;;;;;;5082609;28;19916;-74
2023/02/07 09:41:27;;;;;;;;;;;;;;;;;;5084238;28;20015;-72
2023/02/07 09:43:56;;;;;;;;;;;;;;;;;;5080701;28;19916;-74
2023/02/07 09:46:22;;;;;;;;;;;;;;;;;;5085052;28;19978;-77
2023/02/07 09:48:48;;;;;;;;;;;;;;;;;;5089756;28;19915;-73
2023/02/07 09:51:14;;;;;;;;;;;;;;;;;;5087259;28;19916;-72
2023/02/07 09:53:41;;;;;;;;;;;;;;;;;;5088938;28;19912;-73
2023/02/07 09:56:07;;;;;;;;;;;;;;;;;;5087952;28;19920;-74
2023/02/07 09:58:33;;;;;;;;;;;;;;;;;;5098398;28;19911;-74
2023/02/07 10:00:59;;;;;;;;;;;;;;;;;;5090358;28;19965;-74
2023/02/07 10:03:25;;;;;;;;;;;;;;;;;;5089629;28;19924;-74
2023/02/07 10:05:51;;;;;;;;;;;;;;;;;;5087449;28;19919;-75
2023/02/07 10:08:17;;;;;;;;;;;;;;;;;;5069183;28;19909;-73
2023/02/07 10:10:46;;;;;;;;;;;;;;;;;;5069106;28;19912;-73
2023/02/07 10:13:12;;;;;;;;;;;;;;;;;;5077966;28;20292;-72
2023/02/07 10:15:38;;;;;;;;;;;;;;;;;;5082588;28;19923;-73
2023/02/07 10:18:04;;;;;;;;;;;;;;;;;;5080020;28;19943;-73
2023/02/07 10:20:30;;;;;;;;;;;;;;;;;;5087029;28;19943;-74
2023/02/07 10:22:56;;;;;;;;;;;;;;;;;;5081855;28;20042;-75
2023/02/07 10:25:22;;;;;;;;;;;;;;;;;;5079924;28;20015;-72
2023/02/07 10:27:48;;;;;;;;;;;;;;;;;;5086753;28;19912;-72
2023/02/07 10:30:15;;;;;;;;;;;;;;;;;;5087889;28;20003;-74
2023/02/07 10:32:42;;;;;;;;;;;;;;;;;;5077091;28;19916;-74
2023/02/07 10:35:08;;;;;;;;;;;;;;;;;;5082520;28;19913;-74
2023/02/07 10:37:34;;;;;;;;;;;;;;;;;;5080776;28;19931;-73
2023/02/07 10:40:00;;;;;;;;;;;;;;;;;;5076734;28;19920;-71
2023/02/07 10:42:26;;;;;;;;;;;;;;;;;;5076646;28;19924;-71
2023/02/07 10:44:52;;;;;;;;;;;;;;;;;;5078353;28;20311;-71
2023/02/07 10:47:18;;;;;;;;;;;;;;;;;;5076036;28;19977;-71
2023/02/07 10:49:44;;;;;;;;;;;;;;;;;;5082984;28;19916;-70
2023/02/07 10:52:10;;;;;;;;;;;;;;;;;;5085652;28;20392;-71
2023/02/07 10:54:36;;;;;;;;;;;;;;;;;;5077669;28;19948;-72
2023/02/07 10:57:02;;;;;;;;;;;;;;;;;;5076299;28;19948;-69
2023/02/07 10:59:28;;;;;;;;;;;;;;;;;;5074697;28;19923;-71
2023/02/07 11:01:54;;;;;;;;;;;;;;;;;;5081411;28;19951;-72
2023/02/07 11:04:20;;;;;;;;;;;;;;;;;;5082558;28;19954;-72
2023/02/07 11:06:46;;;;;;;;;;;;;;;;;;5080403;28;20279;-70
2023/02/07 11:09:12;;;;;;;;;;;;;;;;;;5075651;28;19974;-71
2023/02/07 11:11:39;;;;;;;;;;;;;;;;;;5071909;28;19912;-70
2023/02/07 11:14:05;;;;;;;;;;;;;;;;;;5069556;28;19924;-71
2023/02/07 11:16:31;;;;;;;;;;;;;;;;;;5069561;28;19931;-71
2023/02/07 11:18:58;;;;;;;;;;;;;;;;;;5084712;28;19920;-71
2023/02/07 11:21:24;;;;;;;;;;;;;;;;;;5085119;28;19928;-72
2023/02/07 11:23:50;;;;;;;;;;;;;;;;;;5075241;28;19920;-73
2023/02/07 11:26:16;;;;;;;;;;;;;;;;;;5087971;28;19999;-72
2023/02/07 11:28:42;;;;;;;;;;;;;;;;;;5088617;28;20007;-69
2023/02/07 11:31:08;;;;;;;;;;;;;;;;;;5091262;28;19926;-73
2023/02/07 11:33:35;;;;;;;;;;;;;;;;;;5084751;28;19924;-72
2023/02/07 11:36:01;;;;;;;;;;;;;;;;;;5093041;28;19921;-72
2023/02/07 11:38:27;;;;;;;;;;;;;;;;;;5081684;28;20537;-70
2023/02/07 11:40:53;;;;;;;;;;;;;;;;;;5091120;28;20011;-71
2023/02/07 11:43:20;;;;;;;;;;;;;;;;;;5084444;28;19916;-71
2023/02/07 11:45:46;;;;;;;;;;;;;;;;;;5092124;28;19926;-71
2023/02/07 11:48:12;;;;;;;;;;;;;;;;;;5089714;28;20003;-71
2023/02/07 11:50:39;;;;;;;;;;;;;;;;;;5090425;28;19927;-71
2023/02/07 11:53:05;;;;;;;;;;;;;;;;;;5083713;28;21605;-72
2023/02/07 11:55:31;;;;;;;;;;;;;;;;;;5092612;28;19908;-71
2023/02/07 11:57:57;;;;;;;;;;;;;;;;;;5076356;28;20380;-69
2023/02/07 12:00:23;;;;;;;;;;;;;;;;;;5087138;28;19919;-72
2023/02/07 12:02:50;;;;;;;;;;;;;;;;;;5091315;28;20365;-70
2023/02/07 12:05:16;;;;;;;;;;;;;;;;;;5090859;28;19994;-76
2023/02/07 12:07:42;;;;;;;;;;;;;;;;;;5079830;28;20021;-72
2023/02/07 12:10:08;;;;;;;;;;;;;;;;;;5074774;28;20050;-74
2023/02/07 12:12:34;;;;;;;;;;;;;;;;;;5101178;28;20006;-72
2023/02/07 12:15:00;;;;;;;;;;;;;;;;;;5085734;28;19924;-72
2023/02/07 12:17:26;;;;;;;;;;;;;;;;;;5078111;28;19924;-72
2023/02/07 12:19:52;;;;;;;;;;;;;;;;;;5071335;28;19958;-71
2023/02/07 12:22:18;;;;;;;;;;;;;;;;;;5072842;28;19997;-72
2023/02/07 12:24:44;;;;;;;;;;;;;;;;;;5073015;28;20620;-72
2023/02/07 12:27:10;;;;;;;;;;;;;;;;;;5074061;28;19993;-71
2023/02/07 12:29:37;;;;;;;;;;;;;;;;;;5073512;28;19954;-72
2023/02/07 12:32:03;;;;;;;;;;;;;;;;;;5075062;28;19955;-72
2023/02/07 12:34:29;;;;;;;;;;;;;;;;;;5075205;28;19919;-72
2023/02/07 12:36:55;;;;;;;;;;;;;;;;;;5074631;28;19952;-76
2023/02/07 12:39:21;;;;;;;;;;;;;;;;;;5074819;28;19975;-75
2023/02/07 12:41:47;;;;;;;;;;;;;;;;;;5075413;28;19912;-73
2023/02/07 12:44:13;;;;;;;;;;;;;;;;;;5074905;28;19923;-73
2023/02/07 12:46:39;;;;;;;;;;;;;;;;;;5074955;28;19994;-71
2023/02/07 12:49:05;;;;;;;;;;;;;;;;;;5073532;28;19954;-74
2023/02/07 12:51:32;;;;;;;;;;;;;;;;;;5089479;28;19922;-75
2023/02/07 12:53:58;;;;;;;;;;;;;;;;;;5084857;28;19913;-72
2023/02/07 12:56:24;;;;;;;;;;;;;;;;;;5069238;28;20324;-74
2023/02/07 12:58:50;;;;;;;;;;;;;;;;;;5070884;28;19919;-74
2023/02/07 13:01:16;;;;;;;;;;;;;;;;;;5075656;28;19919;-76
2023/02/07 13:03:41;;;;;;;;;;;;;;;;;;5088863;28;19918;-72
2023/02/07 13:06:07;;;;;;;;;;;;;;;;;;5088290;28;19912;-70
2023/02/07 13:08:33;;;;;;;;;;;;;;;;;;5082780;28;20016;-69
2023/02/07 13:10:59;;;;;;;;;;;;;;;;;;5087806;28;19916;-72
2023/02/07 13:13:26;;;;;;;;;;;;;;;;;;5091736;28;20284;-71
2023/02/07 13:15:52;;;;;;;;;;;;;;;;;;5100733;28;19923;-72
2023/02/07 13:18:18;;;;;;;;;;;;;;;;;;5072513;28;19919;-70
2023/02/07 13:20:44;;;;;;;;;;;;;;;;;;5089478;28;19959;-71
2023/02/07 13:23:10;;;;;;;;;;;;;;;;;;5091019;28;20311;-70
2023/02/07 13:25:36;;;;;;;;;;;;;;;;;;5079331;28;19912;-73
2023/02/07 13:28:02;;;;;;;;;;;;;;;;;;5083320;28;19945;-73
2023/02/07 13:30:28;;;;;;;;;;;;;;;;;;5087202;28;19958;-74
2023/02/07 13:32:54;;;;;;;;;;;;;;;;;;5092646;28;19919;-80
2023/02/07 13:35:20;;;;;;;;;;;;;;;;;;5090199;28;19912;-73
2023/02/07 13:37:46;;;;;;;;;;;;;;;;;;5083135;28;19924;-71
2023/02/07 13:40:12;;;;;;;;;;;;;;;;;;5071494;28;19909;-73
2023/02/07 13:42:38;;;;;;;;;;;;;;;;;;5075795;28;19965;-76
2023/02/07 13:45:04;;;;;;;;;;;;;;;;;;5093798;28;19998;-73
2023/02/07 13:47:30;;;;;;;;;;;;;;;;;;5092220;28;19912;-75
2023/02/07 13:49:56;;;;;;;;;;;;;;;;;;5091785;28;19908;-74
2023/02/07 13:52:22;;;;;;;;;;;;;;;;;;5087642;28;20384;-75
2023/02/07 13:54:48;;;;;;;;;;;;;;;;;;5092453;28;20287;-76
2023/02/07 13:59:59;;;;;;;;;;;;;;;;;;5092980;28;20287;-70
2023/02/07 14:02:24;;;;;;;;;;;;;;;;;;5085940;28;19916;-69
2023/02/07 14:04:50;;;;;;;;;;;;;;;;;;5085559;28;19924;-71
2023/02/07 14:07:16;;;;;;;;;;;;;;;;;;5079974;28;19912;-71
2023/02/07 14:09:42;;;;;;;;;;;;;;;;;;5092679;28;19930;-71
2023/02/07 14:12:08;;;;;;;;;;;;;;;;;;5093921;28;19974;-72
2023/02/07 14:14:34;;;;;;;;;;;;;;;;;;5086620;28;20292;-72
2023/02/07 14:17:02;;;;;;;;;;;;;;;;;;5071875;28;21305;-72
2023/02/07 14:19:28;;;;;;;;;;;;;;;;;;5073407;28;19999;-72
2023/02/07 14:21:54;;;;;;;;;;;;;;;;;;5070135;28;19953;-71
2023/02/07 14:24:20;;;;;;;;;;;;;;;;;;5073501;28;20712;-72
2023/02/07 14:26:46;;;;;;;;;;;;;;;;;;5074217;28;20280;-72
2023/02/07 14:29:12;;;;;;;;;;;;;;;;;;5070480;28;19912;-72
2023/02/07 14:31:38;;;;;;;;;;;;;;;;;;5069398;28;19999;-72
2023/02/07 14:34:05;;;;;;;;;;;;;;;;;;5071757;28;19920;-72
2023/02/07 14:36:31;;;;;;;;;;;;;;;;;;5071992;28;19916;-72
2023/02/07 14:38:56;;;;;;;;;;;;;;;;;;5072261;28;20273;-71
2023/02/07 14:41:22;;;;;;;;;;;;;;;;;;5072705;28;19912;-72
2023/02/07 14:43:48;;;;;;;;;;;;;;;;;;5072861;28;19908;-71
2023/02/07 14:46:15;;;;;;;;;;;;;;;;;;5071724;28;20054;-71
2023/02/07 14:48:41;;;;;;;;;;;;;;;;;;5073689;28;19908;-71
2023/02/07 14:51:07;;;;;;;;;;;;;;;;;;5073952;28;20273;-72
2023/02/07 14:53:33;;;;;;;;;;;;;;;;;;5073318;28;20307;-71
2023/02/07 14:55:58;;;;;;;;;;;;;;;;;;5074056;28;20445;-71
2023/02/07 14:58:24;;;;;;;;;;;;;;;;;;5073468;28;19913;-71
2023/02/07 15:00:50;;;;;;;;;;;;;;;;;;5073565;28;19963;-71
2023/02/07 15:03:17;;;;;;;;;;;;;;;;;;5077735;28;20280;-71
2023/02/07 15:05:43;;;;;;;;;;;;;;;;;;5077500;28;19912;-71
2023/02/07 15:08:09;;;;;;;;;;;;;;;;;;5077046;28;20009;-72
2023/02/07 15:10:35;;;;;;;;;;;;;;;;;;5076176;28;20340;-72
2023/02/07 15:13:01;;;;;;;;;;;;;;;;;;5076128;28;19908;-71
2023/02/07 15:15:27;;;;;;;;;;;;;;;;;;5076640;28;19921;-72
2023/02/07 15:17:53;;;;;;;;;;;;;;;;;;5076030;28;19916;-71
2023/02/07 15:20:19;;;;;;;;;;;;;;;;;;5075514;28;19909;-72
2023/02/07 15:22:45;;;;;;;;;;;;;;;;;;5077477;28;19955;-71
2023/02/07 15:25:11;;;;;;;;;;;;;;;;;;5077168;28;20003;-72
2023/02/07 15:27:36;;;;;;;;;;;;;;;;;;5075445;28;19909;-71
2023/02/07 15:30:02;;;;;;;;;;;;;;;;;;5077129;28;20285;-72
2023/02/07 15:32:29;;;;;;;;;;;;;;;;;;5075759;28;20363;-72
2023/02/07 15:34:55;;;;;;;;;;;;;;;;;;5076806;28;19909;-71
2023/02/07 15:37:23;;;;;;;;;;;;;;;;;;5076799;28;19916;-72
2023/02/07 15:39:49;;;;;;;;;;;;;;;;;;5076872;28;20395;-71
2023/02/07 15:42:15;;;;;;;;;;;;;;;;;;5076672;28;19943;-73
2023/02/07 15:44:41;;;;;;;;;;;;;;;;;;5075483;28;19913;-72
2023/02/07 15:47:07;;;;;;;;;;;;;;;;;;5075453;28;19916;-72
2023/02/07 15:49:33;;;;;;;;;;;;;;;;;;5076319;28;19915;-72
2023/02/07 15:51:59;;;;;;;;;;;;;;;;;;5075370;28;19909;-72
2023/02/07 15:54:25;;;;;;;;;;;;;;;;;;5076594;28;19908;-74
2023/02/07 15:56:51;;;;;;;;;;;;;;;;;;5076131;28;19917;-71
2023/02/07 15:59:17;;;;;;;;;;;;;;;;;;5075134;28;19909;-71
2023/02/07 16:01:43;;;;;;;;;;;;;;;;;;5075192;28;19978;-71
2023/02/07 16:04:08;;;;;;;;;;;;;;;;;;5074752;28;19909;-71
2023/02/07 16:06:34;;;;;;;;;;;;;;;;;;5076251;28;20304;-71
2023/02/07 16:09:00;;;;;;;;;;;;;;;;;;5076274;28;20286;-72
2023/02/07 16:11:26;;;;;;;;;;;;;;;;;;5075478;28;20424;-72
2023/02/07 16:13:52;;;;;;;;;;;;;;;;;;5075389;28;19917;-71
2023/02/07 16:16:18;;;;;;;;;;;;;;;;;;5076020;28;19920;-71
2023/02/07 16:18:45;;;;;;;;;;;;;;;;;;5075742;28;19920;-72
2023/02/07 16:21:11;;;;;;;;;;;;;;;;;;5076433;28;19909;-72
2023/02/07 16:23:37;;;;;;;;;;;;;;;;;;5075602;28;19915;-72
2023/02/07 16:26:03;;;;;;;;;;;;;;;;;;5075873;28;19931;-72
2023/02/07 16:28:29;;;;;;;;;;;;;;;;;;5075896;28;20365;-72
2023/02/07 16:30:55;;;;;;;;;;;;;;;;;;5075444;28;19919;-72
2023/02/07 16:33:21;;;;;;;;;;;;;;;;;;5075836;28;19958;-72
2023/02/07 16:35:47;;;;;;;;;;;;;;;;;;5074522;28;19956;-72
2023/02/07 16:38:12;;;;;;;;;;;;;;;;;;5075554;28;19917;-72
2023/02/07 16:40:38;;;;;;;;;;;;;;;;;;5075683;28;19909;-72